createdAt,value
2023-09-27T00:01:12.343Z,100866.09
2023-09-27T00:04:36.830Z,100871.47
2023-09-27T00:08:00.814Z,100865.09
2023-09-27T00:11:25.711Z,100867.66
2023-09-27T00:14:50.774Z,100864.00
2023-09-27T00:18:16.559Z,100856.59
2023-09-27T00:21:40.645Z,100862.75
2023-09-27T00:25:06.234Z,100864.72
2023-09-27T00:28:30.355Z,100865.91
2023-09-27T00:31:56.263Z,100869.09
2023-09-27T00:35:24.331Z,100867.66
2023-09-27T00:38:49.237Z,100873.97
2023-09-27T00:42:14.550Z,100877.75
2023-09-27T00:45:38.779Z,100871.47
2023-09-27T00:49:04.191Z,100875.88
2023-09-27T00:52:28.487Z,100867.16
2023-09-27T00:55:52.203Z,100878.03
2023-09-27T00:59:16.918Z,100878.72
2023-09-27T01:02:41.662Z,100876.78
2023-09-27T01:06:07.337Z,100878.03
2023-09-27T01:09:31.903Z,100879.34
2023-09-27T01:12:56.401Z,100880.41
2023-09-27T01:16:20.477Z,100878.63
2023-09-27T01:19:44.811Z,100881.34
2023-09-27T01:23:09.752Z,100874.31
2023-09-27T01:26:34.262Z,100885.44
2023-09-27T01:29:58.088Z,100876.94
2023-09-27T01:33:22.727Z,100886.44
2023-09-27T01:36:46.259Z,100881.91
2023-09-27T01:40:17.843Z,100886.00
2023-09-27T01:43:41.598Z,100885.53
2023-09-27T01:47:06.127Z,100875.28
2023-09-27T01:50:30.344Z,100882.75
2023-09-27T01:53:55.459Z,100873.97
2023-09-27T01:57:20.754Z,100877.13
2023-09-27T02:00:45.012Z,100877.63
2023-09-27T02:04:09.462Z,100879.50
2023-09-27T02:07:33.519Z,100873.38
2023-09-27T02:10:58.128Z,100883.31
2023-09-27T02:14:23.647Z,100879.50
2023-09-27T02:17:47.793Z,100877.13
2023-09-27T02:21:12.168Z,100880.50
2023-09-27T02:24:36.203Z,100877.37
2023-09-27T02:28:01.204Z,100884.13
2023-09-27T02:31:26.971Z,100884.47
2023-09-27T02:34:51.371Z,100880.28
2023-09-27T02:38:15.610Z,100882.88
2023-09-27T02:41:41.283Z,100890.16
2023-09-27T02:45:05.304Z,100894.31
2023-09-27T02:48:31.504Z,100890.31
2023-09-27T02:51:55.584Z,100889.47
2023-09-27T02:55:19.867Z,100893.78
2023-09-27T02:58:46.517Z,100875.62
2023-09-27T03:02:11.107Z,100878.44
2023-09-27T03:05:40.155Z,100885.88
2023-09-27T03:09:05.336Z,100895.66
2023-09-27T03:12:29.821Z,100880.22
2023-09-27T03:16:00.118Z,100898.88
2023-09-27T03:19:24.652Z,100893.09
2023-09-27T03:22:50.730Z,100893.03
2023-09-27T03:26:14.507Z,100886.28
2023-09-27T03:29:38.590Z,100894.66
2023-09-27T03:33:02.669Z,100896.25
2023-09-27T03:36:26.964Z,100885.63
2023-09-27T03:39:54.278Z,100888.63
2023-09-27T03:43:18.669Z,100890.22
2023-09-27T03:46:42.868Z,100890.87
2023-09-27T03:50:08.683Z,100889.25
2023-09-27T03:53:33.982Z,100895.16
2023-09-27T03:56:59.445Z,100893.44
2023-09-27T04:00:24.875Z,100889.22
2023-09-27T04:03:50.531Z,100893.72
2023-09-27T04:07:14.842Z,100889.34
2023-09-27T04:10:39.897Z,100895.56
2023-09-27T04:14:07.338Z,100885.44
2023-09-27T04:17:31.666Z,100886.78
2023-09-27T04:20:56.183Z,100885.28
2023-09-27T04:24:20.836Z,100891.59
2023-09-27T04:27:44.902Z,100897.03
2023-09-27T04:31:11.024Z,100891.75
2023-09-27T04:34:34.699Z,100896.53
2023-09-27T04:37:59.202Z,100895.47
2023-09-27T04:41:23.161Z,100906.09
2023-09-27T04:44:47.651Z,100910.03
2023-09-27T04:48:13.296Z,100909.28
2023-09-27T04:51:37.579Z,100913.62
2023-09-27T04:55:01.915Z,100905.81
2023-09-27T04:58:26.519Z,100905.81
2023-09-27T05:01:50.888Z,100908.53
2023-09-27T05:05:17.858Z,100913.25
2023-09-27T05:08:41.954Z,100922.88
2023-09-27T05:12:06.587Z,100919.16
2023-09-27T05:15:30.374Z,100926.84
2023-09-27T05:18:55.097Z,100925.13
2023-09-27T05:22:21.294Z,100919.66
2023-09-27T05:25:46.252Z,100925.97
2023-09-27T05:29:15.350Z,100932.00
2023-09-27T05:32:39.569Z,100937.19
2023-09-27T05:36:03.253Z,100931.16
2023-09-27T05:39:28.788Z,100940.50
2023-09-27T05:42:52.672Z,100943.75
2023-09-27T05:46:17.603Z,100942.06
2023-09-27T05:49:42.816Z,100946.59
2023-09-27T05:53:08.140Z,100955.78
2023-09-27T05:56:34.555Z,100956.75
2023-09-27T06:00:00.366Z,100957.12
2023-09-27T06:03:27.588Z,100953.19
2023-09-27T06:06:52.604Z,100959.06
2023-09-27T06:10:17.122Z,100954.25
2023-09-27T06:13:43.461Z,100957.34
2023-09-27T06:17:07.837Z,100962.72
2023-09-27T06:20:34.172Z,100966.25
2023-09-27T06:23:57.967Z,100963.56
2023-09-27T06:27:21.797Z,100971.22
2023-09-27T06:30:47.209Z,100968.66
2023-09-27T06:34:11.539Z,100976.13
2023-09-27T06:37:34.992Z,100985.78
2023-09-27T06:40:59.052Z,100993.72
2023-09-27T06:44:22.260Z,100990.97
2023-09-27T06:47:50.906Z,101005.78
2023-09-27T06:51:15.159Z,101004.34
2023-09-27T06:54:39.748Z,101007.47
2023-09-27T06:58:03.488Z,101003.41
2023-09-27T07:01:28.225Z,100999.87
2023-09-27T07:04:53.479Z,101011.94
2023-09-27T07:08:18.167Z,101014.88
2023-09-27T07:11:45.132Z,101004.16
2023-09-27T07:15:11.411Z,101018.56
2023-09-27T07:18:36.763Z,101015.28
2023-09-27T07:22:09.625Z,101022.22
2023-09-27T07:25:35.842Z,101017.72
2023-09-27T07:28:59.299Z,101012.38
2023-09-27T07:32:23.509Z,101014.81
2023-09-27T07:35:53.752Z,101027.44
2023-09-27T07:39:19.237Z,101024.34
2023-09-27T07:42:44.352Z,101029.31
2023-09-27T07:46:08.953Z,101026.34
2023-09-27T07:49:34.153Z,101026.87
2023-09-27T07:52:58.211Z,101025.78
2023-09-27T07:56:25.795Z,101031.88
2023-09-27T07:59:50.814Z,101032.72
2023-09-27T08:03:16.269Z,101035.22
2023-09-27T08:06:41.198Z,101037.31
2023-09-27T08:10:19.161Z,101035.38
2023-09-27T08:13:47.662Z,101040.94
2023-09-27T08:17:11.824Z,101032.25
2023-09-27T08:20:36.504Z,101033.81
2023-09-27T08:24:00.625Z,101038.19
2023-09-27T08:27:25.171Z,101038.34
2023-09-27T08:30:51.269Z,101030.31
2023-09-27T08:34:16.068Z,101034.91
2023-09-27T08:37:40.002Z,101030.56
2023-09-27T08:41:05.392Z,101037.25
2023-09-27T08:44:29.779Z,101027.13
2023-09-27T08:47:55.859Z,101028.00
2023-09-27T08:51:20.463Z,101039.47
2023-09-27T08:54:45.019Z,101039.44
2023-09-27T08:58:09.761Z,101038.88
2023-09-27T09:01:35.796Z,101037.00
2023-09-27T09:05:02.176Z,101041.38
2023-09-27T09:08:42.764Z,101033.91
2023-09-27T09:12:10.530Z,101034.56
2023-09-27T09:15:42.870Z,101034.50
2023-09-27T09:19:41.142Z,101030.53
2023-09-27T09:23:14.125Z,101024.44
2023-09-27T09:26:38.773Z,101031.06
2023-09-27T09:30:08.215Z,101022.25
2023-09-27T09:33:38.340Z,101018.31
2023-09-27T09:37:02.676Z,101012.31
2023-09-27T09:40:28.482Z,101013.75
2023-09-27T09:43:53.405Z,101014.62
2023-09-27T09:47:18.970Z,101011.06
2023-09-27T09:50:43.537Z,101004.69
2023-09-27T09:54:08.317Z,101006.37
2023-09-27T09:57:52.338Z,101007.66
2023-09-27T10:01:23.431Z,100996.28
2023-09-27T10:04:48.324Z,100999.87
2023-09-27T10:08:12.156Z,100993.31
2023-09-27T10:11:38.255Z,100989.94
2023-09-27T10:15:04.140Z,100994.84
2023-09-27T10:18:35.167Z,100995.50
2023-09-27T10:22:07.413Z,100987.97
2023-09-27T10:25:38.399Z,100984.44
2023-09-27T10:29:15.580Z,100982.78
2023-09-27T10:32:40.503Z,100985.28
2023-09-27T10:36:29.270Z,100968.97
2023-09-27T10:40:22.521Z,100967.72
2023-09-27T10:43:46.285Z,100964.94
2023-09-27T10:47:10.770Z,100966.63
2023-09-27T10:50:36.163Z,100958.87
2023-09-27T10:54:02.020Z,100941.00
2023-09-27T10:57:28.887Z,100944.63
2023-09-27T11:00:54.491Z,100937.78
2023-09-27T11:04:18.287Z,100939.94
2023-09-27T11:07:52.667Z,100930.91
2023-09-27T11:11:17.793Z,100934.28
2023-09-27T11:14:47.350Z,100928.31
2023-09-27T11:18:12.342Z,100933.91
2023-09-27T11:21:36.749Z,100922.72
2023-09-27T11:25:02.324Z,100917.19
2023-09-27T11:28:26.903Z,100913.25
2023-09-27T11:31:57.843Z,100913.09
2023-09-27T11:35:22.223Z,100894.94
2023-09-27T11:38:51.798Z,100892.88
2023-09-27T11:42:17.731Z,100897.13
2023-09-27T11:45:46.059Z,100893.44
2023-09-27T11:49:10.004Z,100896.66
2023-09-27T11:52:32.753Z,100885.44
2023-09-27T11:55:56.961Z,100891.88
2023-09-27T11:59:21.113Z,100876.19
2023-09-27T12:02:56.426Z,100865.09
2023-09-27T12:06:21.186Z,100874.28
2023-09-27T12:09:44.026Z,100866.59
2023-09-27T12:13:07.393Z,100865.75
2023-09-27T12:16:32.460Z,100867.09
2023-09-27T12:19:56.115Z,100861.72
2023-09-27T12:23:20.072Z,100857.06
2023-09-27T12:26:44.670Z,100849.81
2023-09-27T12:30:10.059Z,100845.69
2023-09-27T12:33:35.791Z,100847.75
2023-09-27T12:37:00.025Z,100833.63
2023-09-27T12:40:25.874Z,100835.69
2023-09-27T12:43:49.710Z,100836.44
2023-09-27T12:47:12.955Z,100835.62
2023-09-27T12:50:37.582Z,100828.50
2023-09-27T12:54:00.706Z,100823.00
2023-09-27T12:57:23.671Z,100815.81
2023-09-27T13:00:46.932Z,100808.03
2023-09-27T13:04:10.690Z,100813.13
2023-09-27T13:07:35.426Z,100804.06
2023-09-27T13:10:58.474Z,100794.19
2023-09-27T13:14:22.208Z,100791.09
2023-09-27T13:17:45.353Z,100778.59
2023-09-27T13:21:12.345Z,100777.31
2023-09-27T13:24:37.071Z,100773.75
2023-09-27T13:28:00.237Z,100771.12
2023-09-27T13:31:25.033Z,100771.94
2023-09-27T13:34:49.365Z,100764.41
2023-09-27T13:38:13.030Z,100764.00
2023-09-27T13:41:44.177Z,100750.78
2023-09-27T13:45:09.115Z,100759.78
2023-09-27T13:48:34.370Z,100754.69
2023-09-27T13:51:58.411Z,100764.34
2023-09-27T13:55:23.454Z,100765.63
2023-09-27T13:58:48.792Z,100764.16
2023-09-27T14:02:16.170Z,100756.13
2023-09-27T14:05:40.520Z,100761.56
2023-09-27T14:09:05.314Z,100755.41
2023-09-27T14:12:30.134Z,100748.47
2023-09-27T14:15:55.927Z,100755.37
2023-09-27T14:19:20.974Z,100750.75
2023-09-27T14:22:45.806Z,100753.72
2023-09-27T14:26:10.817Z,100739.75
2023-09-27T14:29:36.495Z,100741.56
2023-09-27T14:33:03.984Z,100733.66
2023-09-27T14:36:27.067Z,100728.53
2023-09-27T14:39:50.183Z,100734.00
2023-09-27T14:43:13.751Z,100722.19
2023-09-27T14:46:37.842Z,100724.41
2023-09-27T14:50:02.328Z,100729.50
2023-09-27T14:53:26.100Z,100724.56
2023-09-27T14:56:50.104Z,100719.84
2023-09-27T15:00:15.039Z,100725.09
2023-09-27T15:03:39.344Z,100718.91
2023-09-27T15:07:05.645Z,100726.09
2023-09-27T15:10:29.579Z,100735.94
2023-09-27T15:13:57.694Z,100722.56
2023-09-27T15:17:22.236Z,100729.41
2023-09-27T15:20:46.781Z,100727.47
2023-09-27T15:24:12.801Z,100730.03
2023-09-27T15:27:37.167Z,100721.78
2023-09-27T15:31:00.958Z,100728.91
2023-09-27T15:34:25.415Z,100728.56
2023-09-27T15:37:53.716Z,100724.81
2023-09-27T15:41:20.013Z,100721.78
2023-09-27T15:44:43.929Z,100719.59
2023-09-27T15:48:09.262Z,100717.28
2023-09-27T15:51:33.303Z,100716.78
2023-09-27T15:54:57.595Z,100716.47
2023-09-27T15:58:23.364Z,100713.94
2023-09-27T16:01:47.391Z,100710.84
2023-09-27T16:05:12.407Z,100713.31
2023-09-27T16:08:36.091Z,100716.62
2023-09-27T16:12:00.477Z,100710.66
2023-09-27T16:15:27.433Z,100717.00
2023-09-27T16:18:51.522Z,100717.00
2023-09-27T16:22:14.994Z,100714.97
2023-09-27T16:25:39.724Z,100708.56
2023-09-27T16:29:04.285Z,100710.16
2023-09-27T16:32:31.000Z,100715.19
2023-09-27T16:35:55.940Z,100715.28
2023-09-27T16:39:20.746Z,100708.16
2023-09-27T16:42:45.648Z,100710.78
2023-09-27T16:46:10.454Z,100713.81
2023-09-27T16:49:36.381Z,100722.06
2023-09-27T16:53:01.034Z,100718.16
2023-09-27T16:56:25.639Z,100721.06
2023-09-27T16:59:50.689Z,100711.63
2023-09-27T17:03:15.495Z,100718.34
2023-09-27T17:06:42.617Z,100715.09
2023-09-27T17:10:10.625Z,100714.34
2023-09-27T17:13:37.470Z,100717.09
2023-09-27T17:17:03.953Z,100719.44
2023-09-27T17:20:30.790Z,100722.16
2023-09-27T17:23:58.842Z,100723.25
2023-09-27T17:27:25.794Z,100717.44
2023-09-27T17:30:52.668Z,100716.53
2023-09-27T17:34:19.348Z,100715.53
2023-09-27T17:37:46.313Z,100720.84
2023-09-27T17:41:14.318Z,100731.19
2023-09-27T17:44:40.541Z,100725.44
2023-09-27T17:48:07.957Z,100729.91
2023-09-27T17:51:35.569Z,100719.34
2023-09-27T17:55:02.970Z,100720.97
2023-09-27T17:58:31.454Z,100712.44
2023-09-27T18:01:58.880Z,100718.63
2023-09-27T18:05:25.582Z,100721.87
2023-09-27T18:08:51.258Z,100720.34
2023-09-27T18:12:18.279Z,100716.50
2023-09-27T18:15:46.216Z,100719.81
2023-09-27T18:19:14.373Z,100716.59
2023-09-27T18:22:40.728Z,100720.03
2023-09-27T18:26:07.152Z,100717.06
2023-09-27T18:29:34.245Z,100714.87
2023-09-27T18:33:03.272Z,100717.12
2023-09-27T18:36:29.234Z,100715.13
2023-09-27T18:39:56.034Z,100720.47
2023-09-27T18:43:22.925Z,100720.31
2023-09-27T18:46:49.259Z,100727.19
2023-09-27T18:50:19.908Z,100730.09
2023-09-27T18:53:46.194Z,100731.87
2023-09-27T18:57:13.282Z,100729.22
2023-09-27T19:00:42.974Z,100728.75
2023-09-27T19:04:09.647Z,100730.88
2023-09-27T19:07:41.182Z,100720.94
2023-09-27T19:11:08.485Z,100725.34
2023-09-27T19:14:34.380Z,100729.22
2023-09-27T19:18:01.276Z,100725.34
2023-09-27T19:21:28.510Z,100727.50
2023-09-27T19:24:57.264Z,100721.97
2023-09-27T19:28:24.964Z,100713.72
2023-09-27T19:31:52.196Z,100720.47
2023-09-27T19:35:19.847Z,100715.47
2023-09-27T19:38:46.347Z,100724.34
2023-09-27T19:42:17.092Z,100714.81
2023-09-27T19:45:43.243Z,100719.19
2023-09-27T19:49:12.938Z,100709.97
2023-09-27T19:52:40.294Z,100708.91
2023-09-27T19:56:06.789Z,100701.63
2023-09-27T19:59:34.272Z,100699.09
2023-09-27T20:03:00.314Z,100697.34
2023-09-27T20:06:27.322Z,100695.63
2023-09-27T20:09:52.224Z,100703.91
2023-09-27T20:13:17.698Z,100704.47
2023-09-27T20:16:45.351Z,100700.47
2023-09-27T20:20:12.380Z,100703.28
2023-09-27T20:23:36.211Z,100704.13
2023-09-27T20:27:02.819Z,100708.37
2023-09-27T20:30:26.935Z,100704.31
2023-09-27T20:33:52.828Z,100703.75
2023-09-27T20:37:16.582Z,100702.28
2023-09-27T20:40:41.172Z,100701.75
2023-09-27T20:44:04.953Z,100706.62
2023-09-27T20:47:29.400Z,100713.22
2023-09-27T20:50:58.595Z,100709.31
2023-09-27T20:54:23.186Z,100716.47
2023-09-27T20:57:48.943Z,100713.69
2023-09-27T21:01:26.281Z,100721.66
2023-09-27T21:04:50.460Z,100714.69
2023-09-27T21:08:16.858Z,100714.28
2023-09-27T21:11:40.583Z,100723.22
2023-09-27T21:15:05.195Z,100716.72
2023-09-27T21:18:28.822Z,100725.91
2023-09-27T21:21:53.471Z,100720.19
2023-09-27T21:25:19.275Z,100722.47
2023-09-27T21:28:43.796Z,100724.78
2023-09-27T21:32:07.627Z,100714.75
2023-09-27T21:35:31.990Z,100718.75
2023-09-27T21:38:55.975Z,100712.25
2023-09-27T21:42:22.209Z,100708.25
2023-09-27T21:45:46.431Z,100710.28
2023-09-27T21:49:10.675Z,100712.84
2023-09-27T21:52:37.457Z,100717.72
2023-09-27T21:56:01.891Z,100713.53
2023-09-27T21:59:27.390Z,100701.78
2023-09-27T22:02:51.908Z,100709.50
2023-09-27T22:06:16.959Z,100711.78
2023-09-27T22:09:42.267Z,100707.03
2023-09-27T22:13:23.024Z,100710.91
2023-09-27T22:16:49.621Z,100708.75
2023-09-27T22:20:14.242Z,100704.47
2023-09-27T22:23:41.747Z,100703.09
2023-09-27T22:27:09.418Z,100706.56
2023-09-27T22:30:33.346Z,100697.56
2023-09-27T22:33:59.268Z,100701.56
2023-09-27T22:37:25.667Z,100693.16
2023-09-27T22:40:50.355Z,100689.81
2023-09-27T22:44:20.866Z,100690.59
2023-09-27T22:47:45.881Z,100697.63
2023-09-27T22:51:11.209Z,100687.56
2023-09-27T22:54:35.817Z,100689.69
2023-09-27T22:58:00.049Z,100686.41
2023-09-27T23:01:29.613Z,100685.38
2023-09-27T23:04:53.576Z,100689.41
2023-09-27T23:08:27.761Z,100683.06
2023-09-27T23:12:01.637Z,100682.78
2023-09-27T23:15:39.488Z,100684.37
2023-09-27T23:19:02.362Z,100682.56
2023-09-27T23:22:26.777Z,100681.59
2023-09-27T23:25:53.833Z,100689.13
2023-09-27T23:29:37.520Z,100687.53
2023-09-27T23:33:02.922Z,100689.09
2023-09-27T23:36:27.702Z,100691.66
2023-09-27T23:39:52.110Z,100688.25
2023-09-27T23:43:18.050Z,100686.66
2023-09-27T23:46:43.324Z,100683.09
2023-09-27T23:50:10.238Z,100687.16
2023-09-27T23:53:34.567Z,100679.91
2023-09-27T23:57:00.416Z,100677.13
